Time;durP1;ratioP1;P1;durP2;ratioP2;P2;SDS_P1;SDS_P2;PMS_P1;PMS_P2;Temp;Humidity;BMP_temperature;BMP_pressure;BME280_temperature;BME280_humidity;BME280_pressure;Samples;Min_cycle;Max_cycle;Signal;HPM_P1;HPM_P2
2023/04/16 00:01:05;;;;;;;4.80;1.00;;;;;;;;;;4949417;28;20046;-63
2023/04/16 00:03:32;;;;;;;5.35;1.10;;;;;;;;;;4965810;28;21083;-62
2023/04/16 00:05:59;;;;;;;5.20;0.93;;;;;;;;;;4968411;28;20046;-63
2023/04/16 00:08:26;;;;;;;3.95;1.00;;;;;;;;;;4966523;28;20097;-64
2023/04/16 00:10:53;;;;;;;5.32;1.73;;;;;;;;;;4965981;28;20054;-62
2023/04/16 00:13:20;;;;;;;3.00;0.98;;;;;;;;;;4965485;28;20149;-62
2023/04/16 00:15:46;;;;;;;3.55;0.90;;;;;;;;;;4964797;28;20137;-61
2023/04/16 00:18:13;;;;;;;4.25;1.00;;;;;;;;;;4966306;28;20101;-64
2023/04/16 00:20:40;;;;;;;5.72;1.10;;;;;;;;;;4966183;28;20039;-63
2023/04/16 00:23:07;;;;;;;5.15;1.00;;;;;;;;;;4955997;28;20042;-63
2023/04/16 00:25:33;;;;;;;4.13;1.20;;;;;;;;;;4977831;28;20596;-63
2023/04/16 00:28:00;;;;;;;4.40;0.90;;;;;;;;;;4988067;28;20125;-62
2023/04/16 00:30:27;;;;;;;3.67;1.00;;;;;;;;;;4970725;28;20042;-62
2023/04/16 00:32:53;;;;;;;4.13;0.90;;;;;;;;;;4977835;28;20030;-63
2023/04/16 00:35:20;;;;;;;3.97;0.85;;;;;;;;;;4976827;28;20042;-64
2023/04/16 00:37:47;;;;;;;2.80;0.77;;;;;;;;;;4974054;28;20049;-65
2023/04/16 00:40:14;;;;;;;2.60;0.80;;;;;;;;;;4976772;28;20053;-64
2023/04/16 00:42:40;;;;;;;2.95;0.82;;;;;;;;;;4968126;28;20042;-64
2023/04/16 00:45:07;;;;;;;5.32;1.10;;;;;;;;;;4970901;28;20058;-65
2023/04/16 00:47:34;;;;;;;4.05;0.90;;;;;;;;;;4976867;28;20547;-64
2023/04/16 00:50:03;;;;;;;2.33;0.80;;;;;;;;;;4976363;28;20046;-67
2023/04/16 00:52:31;;;;;;;5.45;1.27;;;;;;;;;;4976378;28;20034;-63
2023/04/16 00:54:58;;;;;;;10.85;2.60;;;;;;;;;;4977873;28;20137;-65
2023/04/16 00:57:25;;;;;;;9.48;1.88;;;;;;;;;;4975514;28;20065;-63
2023/04/16 00:59:52;;;;;;;7.57;1.42;;;;;;;;;;4976495;28;20038;-64
2023/04/16 01:02:19;;;;;;;5.80;1.20;;;;;;;;;;4963037;28;20031;-63
2023/04/16 01:04:46;;;;;;;5.85;1.10;;;;;;;;;;4975263;28;20085;-64
2023/04/16 01:07:12;;;;;;;4.63;1.48;;;;;;;;;;4967531;28;20080;-64
2023/04/16 01:09:39;;;;;;;5.63;1.25;;;;;;;;;;4975635;28;20430;-64
2023/04/16 01:12:06;;;;;;;4.05;1.13;;;;;;;;;;4975925;28;20050;-63
2023/04/16 01:14:35;;;;;;;6.13;1.15;;;;;;;;;;4972802;28;20055;-64
2023/04/16 01:17:02;;;;;;;8.55;1.50;;;;;;;;;;4975638;28;20499;-67
2023/04/16 01:19:35;;;;;;;8.82;1.70;;;;;;;;;;4971572;28;20617;-65
2023/04/16 01:22:02;;;;;;;7.97;1.85;;;;;;;;;;4977642;28;20042;-62
2023/04/16 01:24:28;;;;;;;5.18;1.00;;;;;;;;;;4976810;28;20628;-63
2023/04/16 01:26:57;;;;;;;9.57;1.73;;;;;;;;;;4991509;28;20074;-66
2023/04/16 01:29:24;;;;;;;6.00;1.35;;;;;;;;;;4974368;28;20529;-64
2023/04/16 01:32:10;;;;;;;5.47;1.05;;;;;;;;;;5010254;28;20037;-62
2023/04/16 01:34:37;;;;;;;6.97;1.30;;;;;;;;;;5011621;28;20279;-62
2023/04/16 01:37:04;;;;;;;8.60;1.75;;;;;;;;;;5012573;28;20046;-65
2023/04/16 01:39:30;;;;;;;9.63;3.83;;;;;;;;;;4995875;28;20144;-64
2023/04/16 01:41:57;;;;;;;7.30;2.67;;;;;;;;;;5013441;28;20192;-63
2023/04/16 01:44:25;;;;;;;7.25;1.83;;;;;;;;;;5011878;28;20136;-63
2023/04/16 01:46:52;;;;;;;8.98;2.30;;;;;;;;;;4991825;28;20414;-65
2023/04/16 01:49:19;;;;;;;6.20;1.90;;;;;;;;;;5010993;28;20075;-64
2023/04/16 01:51:45;;;;;;;9.55;1.50;;;;;;;;;;5009779;28;20046;-64
2023/04/16 01:54:15;;;;;;;8.60;1.70;;;;;;;;;;5010426;28;20033;-64
2023/04/16 01:56:42;;;;;;;12.60;1.90;;;;;;;;;;4973542;28;20053;-65
2023/04/16 01:59:08;;;;;;;7.68;1.52;;;;;;;;;;4953225;28;20084;-64
2023/04/16 02:01:35;;;;;;;4.57;1.30;;;;;;;;;;4961483;28;20219;-64
2023/04/16 02:04:02;;;;;;;8.73;1.65;;;;;;;;;;4978816;28;20081;-65
2023/04/16 02:06:30;;;;;;;16.35;3.45;;;;;;;;;;4977921;28;20046;-63
2023/04/16 02:08:57;;;;;;;8.30;2.60;;;;;;;;;;4958098;28;20089;-66
2023/04/16 02:11:23;;;;;;;19.60;2.75;;;;;;;;;;4941706;28;20038;-64
2023/04/16 02:13:50;;;;;;;7.35;2.40;;;;;;;;;;4942933;28;20443;-64
2023/04/16 02:16:16;;;;;;;9.30;2.15;;;;;;;;;;4940142;28;20479;-65
2023/04/16 02:18:43;;;;;;;18.20;3.35;;;;;;;;;;4921771;28;20043;-65
2023/04/16 02:21:10;;;;;;;14.32;2.53;;;;;;;;;;4959177;28;20039;-62
2023/04/16 02:23:39;;;;;;;14.10;3.03;;;;;;;;;;4939294;28;20604;-62
2023/04/16 02:26:06;;;;;;;8.02;2.90;;;;;;;;;;4959269;28;20146;-63
2023/04/16 02:28:34;;;;;;;7.57;1.77;;;;;;;;;;4973990;28;20068;-64
2023/04/16 02:31:01;;;;;;;14.05;2.75;;;;;;;;;;4979589;28;20513;-65
2023/04/16 02:33:27;;;;;;;10.82;1.80;;;;;;;;;;4978242;28;20034;-63
2023/04/16 02:35:54;;;;;;;11.82;2.00;;;;;;;;;;4990202;28;20136;-64
2023/04/16 02:38:21;;;;;;;14.90;2.38;;;;;;;;;;4978257;28;20043;-69
2023/04/16 02:40:47;;;;;;;12.70;2.03;;;;;;;;;;4978305;28;20050;-64
2023/04/16 02:43:14;;;;;;;8.50;1.98;;;;;;;;;;4978210;28;20117;-64
2023/04/16 02:45:41;;;;;;;11.80;2.28;;;;;;;;;;4988661;28;20890;-65
2023/04/16 02:48:08;;;;;;;12.63;2.22;;;;;;;;;;4977978;28;20042;-63
2023/04/16 02:50:35;;;;;;;5.55;1.75;;;;;;;;;;4978576;28;20147;-63
2023/04/16 02:53:02;;;;;;;10.23;2.60;;;;;;;;;;4978985;28;20117;-64
2023/04/16 02:55:28;;;;;;;14.00;2.30;;;;;;;;;;4978924;28;20073;-63
2023/04/16 02:57:55;;;;;;;7.28;2.13;;;;;;;;;;4977647;28;20066;-63
2023/04/16 03:00:22;;;;;;;6.50;1.95;;;;;;;;;;4979241;28;20046;-63
2023/04/16 03:02:48;;;;;;;12.23;2.38;;;;;;;;;;4979652;28;20056;-63
2023/04/16 03:05:16;;;;;;;15.10;2.47;;;;;;;;;;4976320;28;20431;-63
2023/04/16 03:07:42;;;;;;;13.02;4.60;;;;;;;;;;4975676;28;20038;-64
2023/04/16 03:10:10;;;;;;;13.93;3.63;;;;;;;;;;4977664;28;20038;-63
2023/04/16 03:12:38;;;;;;;11.65;2.47;;;;;;;;;;4977651;28;20526;-64
2023/04/16 03:15:05;;;;;;;11.88;2.47;;;;;;;;;;4980032;28;20074;-63
2023/04/16 03:17:31;;;;;;;7.45;2.20;;;;;;;;;;4978954;28;20081;-62
2023/04/16 03:19:58;;;;;;;6.10;1.90;;;;;;;;;;4983459;28;20046;-64
2023/04/16 03:22:25;;;;;;;15.52;2.65;;;;;;;;;;4983594;28;20175;-65
2023/04/16 03:24:51;;;;;;;10.10;2.35;;;;;;;;;;4981484;28;20043;-64
2023/04/16 03:27:18;;;;;;;23.52;3.40;;;;;;;;;;4980896;28;20092;-65
2023/04/16 03:29:44;;;;;;;9.95;2.17;;;;;;;;;;4979761;28;20085;-65
2023/04/16 03:32:11;;;;;;;7.68;2.50;;;;;;;;;;4978662;28;20041;-64
2023/04/16 03:34:38;;;;;;;12.18;3.05;;;;;;;;;;4970692;28;20054;-65
2023/04/16 03:37:05;;;;;;;12.98;3.33;;;;;;;;;;4977111;28;20042;-64
2023/04/16 03:39:33;;;;;;;8.43;2.47;;;;;;;;;;4978007;28;20043;-67
2023/04/16 03:42:01;;;;;;;13.88;3.47;;;;;;;;;;4976806;28;20407;-65
2023/04/16 03:44:27;;;;;;;15.25;3.85;;;;;;;;;;4978751;28;20074;-65
2023/04/16 03:46:54;;;;;;;13.55;4.57;;;;;;;;;;4977814;28;20054;-66
2023/04/16 03:49:21;;;;;;;16.45;4.25;;;;;;;;;;4977457;28;20118;-65
2023/04/16 03:51:47;;;;;;;19.17;4.25;;;;;;;;;;4978647;28;20041;-65
2023/04/16 03:54:14;;;;;;;25.13;4.63;;;;;;;;;;4976298;28;20396;-66
2023/04/16 03:56:41;;;;;;;18.00;4.18;;;;;;;;;;4977545;28;20046;-68
2023/04/16 03:59:08;;;;;;;15.77;3.95;;;;;;;;;;4988301;28;21444;-65
2023/04/16 04:01:35;;;;;;;20.25;5.43;;;;;;;;;;4978028;28;20038;-66
2023/04/16 04:04:02;;;;;;;18.88;5.35;;;;;;;;;;4977883;28;20030;-66
2023/04/16 04:06:29;;;;;;;18.30;5.18;;;;;;;;;;4987832;28;20391;-64
2023/04/16 04:08:55;;;;;;;22.35;4.95;;;;;;;;;;4977835;28;20092;-66
2023/04/16 04:11:22;;;;;;;14.30;4.20;;;;;;;;;;4978431;28;20054;-66
2023/04/16 04:13:49;;;;;;;21.30;4.95;;;;;;;;;;4978770;28;20046;-65
2023/04/16 04:16:15;;;;;;;22.23;3.72;;;;;;;;;;4981640;28;20527;-66
2023/04/16 04:18:42;;;;;;;24.85;4.22;;;;;;;;;;4992497;28;20084;-65
2023/04/16 04:21:09;;;;;;;18.15;3.90;;;;;;;;;;4972132;28;20046;-64
2023/04/16 04:23:36;;;;;;;27.20;3.70;;;;;;;;;;4982566;28;20145;-66
2023/04/16 04:26:04;;;;;;;15.02;3.53;;;;;;;;;;4977280;28;20121;-65
2023/04/16 04:28:34;;;;;;;14.18;3.15;;;;;;;;;;4975802;28;20038;-65
2023/04/16 04:31:01;;;;;;;16.42;3.80;;;;;;;;;;4976295;28;20042;-65
2023/04/16 04:33:28;;;;;;;15.43;3.10;;;;;;;;;;4968197;28;20795;-65
2023/04/16 04:35:55;;;;;;;12.70;3.13;;;;;;;;;;4986733;28;20153;-65
2023/04/16 04:38:24;;;;;;;11.60;2.83;;;;;;;;;;4974755;28;20038;-66
2023/04/16 04:40:53;;;;;;;14.60;3.63;;;;;;;;;;4977497;28;20042;-64
2023/04/16 04:43:20;;;;;;;18.48;3.10;;;;;;;;;;4975377;28;20577;-67
2023/04/16 04:45:47;;;;;;;13.77;3.08;;;;;;;;;;4975506;28;20141;-66
2023/04/16 04:48:14;;;;;;;12.43;3.28;;;;;;;;;;4975736;28;20043;-65
2023/04/16 04:50:42;;;;;;;12.88;3.40;;;;;;;;;;4977213;28;20603;-66
2023/04/16 04:53:09;;;;;;;18.55;3.72;;;;;;;;;;4976995;28;20053;-65
2023/04/16 04:55:37;;;;;;;34.78;4.43;;;;;;;;;;4976070;28;20061;-64
2023/04/16 04:58:04;;;;;;;19.20;3.75;;;;;;;;;;4973803;28;20035;-64
2023/04/16 05:00:31;;;;;;;20.67;2.92;;;;;;;;;;4976710;28;20069;-65
2023/04/16 05:02:58;;;;;;;13.85;2.53;;;;;;;;;;4973943;28;20042;-65
2023/04/16 05:05:25;;;;;;;11.80;2.50;;;;;;;;;;4976805;28;20042;-64
2023/04/16 05:07:52;;;;;;;10.68;2.15;;;;;;;;;;4976437;28;20125;-63
2023/04/16 05:10:19;;;;;;;5.85;1.38;;;;;;;;;;4977239;28;20058;-66
2023/04/16 05:12:47;;;;;;;4.18;1.33;;;;;;;;;;4973648;28;20072;-63
2023/04/16 05:15:14;;;;;;;5.68;1.50;;;;;;;;;;4976647;28;20507;-63
2023/04/16 05:17:41;;;;;;;4.25;1.40;;;;;;;;;;4974716;28;20052;-64
2023/04/16 05:20:08;;;;;;;3.97;1.58;;;;;;;;;;4976318;28;20616;-65
2023/04/16 05:22:35;;;;;;;5.03;1.40;;;;;;;;;;4975803;28;20864;-64
2023/04/16 05:25:02;;;;;;;7.07;1.20;;;;;;;;;;4975273;28;20504;-65
2023/04/16 05:27:28;;;;;;;4.97;1.15;;;;;;;;;;4974595;28;20053;-65
2023/04/16 05:29:55;;;;;;;4.47;1.10;;;;;;;;;;4976208;28;20046;-65
2023/04/16 05:32:22;;;;;;;3.95;1.15;;;;;;;;;;4974845;28;20779;-66
2023/04/16 05:34:49;;;;;;;4.82;1.15;;;;;;;;;;4966861;28;20055;-66
2023/04/16 05:37:15;;;;;;;5.03;1.38;;;;;;;;;;4979497;28;20360;-65
2023/04/16 05:39:42;;;;;;;5.50;1.30;;;;;;;;;;4978600;28;20042;-66
2023/04/16 05:42:09;;;;;;;5.53;1.38;;;;;;;;;;4980144;28;20049;-65
2023/04/16 05:44:36;;;;;;;4.22;1.30;;;;;;;;;;4978406;28;20050;-64
2023/04/16 05:47:02;;;;;;;3.55;1.15;;;;;;;;;;4979845;28;20116;-64
2023/04/16 05:49:29;;;;;;;6.93;1.40;;;;;;;;;;4989404;28;20478;-66
2023/04/16 05:51:55;;;;;;;3.60;1.10;;;;;;;;;;4979933;28;20038;-66
2023/04/16 05:54:23;;;;;;;6.25;1.25;;;;;;;;;;4978049;28;20046;-66
2023/04/16 05:56:49;;;;;;;2.85;1.05;;;;;;;;;;4979488;28;20644;-65
2023/04/16 05:59:16;;;;;;;5.28;1.25;;;;;;;;;;4979365;28;20046;-65
2023/04/16 06:01:43;;;;;;;4.45;1.38;;;;;;;;;;4970784;28;20035;-65
2023/04/16 06:04:09;;;;;;;6.25;1.38;;;;;;;;;;4975846;28;20497;-64
2023/04/16 06:06:36;;;;;;;5.72;1.17;;;;;;;;;;4988135;28;20048;-66
2023/04/16 06:09:03;;;;;;;6.25;1.52;;;;;;;;;;4974989;28;20038;-64
2023/04/16 06:11:30;;;;;;;6.20;1.42;;;;;;;;;;4971643;28;20199;-65
2023/04/16 06:13:57;;;;;;;7.97;1.55;;;;;;;;;;4985609;28;20034;-65
2023/04/16 06:16:24;;;;;;;5.30;1.38;;;;;;;;;;4988606;28;20077;-65
2023/04/16 06:18:50;;;;;;;5.95;1.42;;;;;;;;;;4978279;28;20192;-64
2023/04/16 06:21:17;;;;;;;5.80;1.50;;;;;;;;;;4979829;28;20932;-65
2023/04/16 06:23:43;;;;;;;4.57;1.35;;;;;;;;;;4977834;28;20035;-66
2023/04/16 06:26:10;;;;;;;9.57;1.65;;;;;;;;;;4980804;28;20038;-64
2023/04/16 06:28:37;;;;;;;4.78;1.70;;;;;;;;;;4992760;28;20046;-66
2023/04/16 06:31:04;;;;;;;7.53;1.30;;;;;;;;;;4980074;28;20117;-66
2023/04/16 06:33:31;;;;;;;4.47;1.30;;;;;;;;;;4977867;28;20446;-64
2023/04/16 06:35:57;;;;;;;3.97;1.30;;;;;;;;;;4979559;28;20046;-67
2023/04/16 06:38:24;;;;;;;8.15;1.60;;;;;;;;;;4977435;28;20046;-67
2023/04/16 06:40:51;;;;;;;6.97;1.67;;;;;;;;;;4978432;28;20097;-65
2023/04/16 06:43:18;;;;;;;4.85;1.40;;;;;;;;;;4978281;28;20122;-64
2023/04/16 06:45:44;;;;;;;5.72;1.60;;;;;;;;;;4971501;28;20058;-64
2023/04/16 06:48:11;;;;;;;4.55;1.80;;;;;;;;;;4979140;28;20042;-63
2023/04/16 06:50:38;;;;;;;5.38;2.10;;;;;;;;;;4978446;28;20030;-66
2023/04/16 06:53:05;;;;;;;5.95;2.08;;;;;;;;;;4980733;28;20823;-64
2023/04/16 06:55:31;;;;;;;8.27;2.20;;;;;;;;;;4978070;28;20042;-64
2023/04/16 06:57:58;;;;;;;8.23;1.88;;;;;;;;;;4978886;28;20049;-65
2023/04/16 07:00:25;;;;;;;4.85;1.80;;;;;;;;;;4979246;28;20030;-63
2023/04/16 07:02:51;;;;;;;5.95;2.00;;;;;;;;;;4980206;28;20042;-64
2023/04/16 07:05:18;;;;;;;7.55;2.15;;;;;;;;;;4980870;28;20039;-65
2023/04/16 07:07:46;;;;;;;4.38;1.60;;;;;;;;;;4979914;28;20046;-65
2023/04/16 07:10:12;;;;;;;9.20;1.90;;;;;;;;;;4968879;28;20054;-64
2023/04/16 07:12:39;;;;;;;4.53;1.80;;;;;;;;;;4968427;28;20046;-64
2023/04/16 07:15:06;;;;;;;7.03;1.77;;;;;;;;;;4970112;28;20773;-64
2023/04/16 07:17:33;;;;;;;9.40;1.90;;;;;;;;;;4969260;28;20578;-65
2023/04/16 07:20:00;;;;;;;6.78;2.05;;;;;;;;;;4970984;28;20081;-65
2023/04/16 07:22:26;;;;;;;5.50;2.00;;;;;;;;;;4971037;28;20045;-64
2023/04/16 07:24:53;;;;;;;6.03;1.63;;;;;;;;;;4969092;28;20042;-65
2023/04/16 07:27:20;;;;;;;6.75;1.80;;;;;;;;;;4969816;28;20042;-65
2023/04/16 07:29:48;;;;;;;9.23;2.10;;;;;;;;;;4968778;28;20046;-64
2023/04/16 07:32:15;;;;;;;11.43;3.13;;;;;;;;;;4969375;28;20035;-64
2023/04/16 07:34:42;;;;;;;5.75;2.60;;;;;;;;;;4967237;28;20054;-65
2023/04/16 07:37:09;;;;;;;8.45;1.70;;;;;;;;;;4970732;28;20034;-66
2023/04/16 07:39:36;;;;;;;7.82;2.00;;;;;;;;;;4970491;28;20046;-64
2023/04/16 07:42:02;;;;;;;6.32;1.92;;;;;;;;;;4967592;28;20542;-69
2023/04/16 07:44:29;;;;;;;9.27;1.70;;;;;;;;;;4965388;28;20443;-65
2023/04/16 07:46:56;;;;;;;4.53;1.35;;;;;;;;;;4967556;28;20130;-64
2023/04/16 07:49:22;;;;;;;4.72;1.38;;;;;;;;;;4973094;28;20121;-66
2023/04/16 07:51:49;;;;;;;4.28;1.35;;;;;;;;;;4964520;28;20482;-64
2023/04/16 07:54:16;;;;;;;4.15;1.23;;;;;;;;;;4973699;28;20038;-64
2023/04/16 07:56:42;;;;;;;5.00;1.02;;;;;;;;;;4974387;28;20057;-66
2023/04/16 07:59:09;;;;;;;7.25;1.25;;;;;;;;;;4977557;28;20043;-65
2023/04/16 08:01:36;;;;;;;5.40;1.33;;;;;;;;;;4975977;28;20815;-64
2023/04/16 08:04:03;;;;;;;4.40;1.20;;;;;;;;;;4977865;28;20375;-67
2023/04/16 08:06:30;;;;;;;6.00;1.27;;;;;;;;;;4975940;28;20042;-64
2023/04/16 08:08:56;;;;;;;4.88;1.40;;;;;;;;;;4969913;28;20043;-65
2023/04/16 08:11:23;;;;;;;5.57;1.20;;;;;;;;;;4976828;28;20041;-66
2023/04/16 08:13:50;;;;;;;6.22;1.40;;;;;;;;;;4992275;28;20058;-64
2023/04/16 08:16:17;;;;;;;3.63;0.95;;;;;;;;;;4978049;28;20046;-64
2023/04/16 08:18:43;;;;;;;5.65;1.20;;;;;;;;;;4977955;28;20130;-63
2023/04/16 08:21:10;;;;;;;6.22;1.30;;;;;;;;;;4977582;28;21802;-63
2023/04/16 08:23:37;;;;;;;4.80;1.40;;;;;;;;;;4976271;28;20062;-63
2023/04/16 08:26:05;;;;;;;5.35;1.10;;;;;;;;;;4977258;28;20030;-64
2023/04/16 08:28:31;;;;;;;8.40;1.23;;;;;;;;;;4975497;28;20070;-65
2023/04/16 08:30:58;;;;;;;4.38;1.23;;;;;;;;;;4978303;28;20041;-66
2023/04/16 08:33:45;;;;;;;3.83;1.38;;;;;;;;;;4967621;28;20115;-65
2023/04/16 08:36:11;;;;;;;4.78;1.60;;;;;;;;;;4961592;28;20120;-69
2023/04/16 08:38:38;;;;;;;9.00;1.33;;;;;;;;;;4956925;28;20128;-64
2023/04/16 08:41:06;;;;;;;5.10;1.23;;;;;;;;;;4968564;28;20045;-64
2023/04/16 08:43:55;;;;;;;3.97;1.23;;;;;;;;;;4943208;28;20077;-65
2023/04/16 08:46:27;;;;;;;4.65;1.20;;;;;;;;;;4944325;28;20068;-63
2023/04/16 08:48:55;;;;;;;4.75;1.30;;;;;;;;;;4943671;28;20879;-63
2023/04/16 08:51:23;;;;;;;5.15;1.23;;;;;;;;;;4945596;28;20054;-65
2023/04/16 08:53:52;;;;;;;3.13;1.20;;;;;;;;;;4937903;28;20078;-63
2023/04/16 08:56:23;;;;;;;5.88;1.30;;;;;;;;;;4924928;28;20053;-65
2023/04/16 08:58:50;;;;;;;3.13;1.10;;;;;;;;;;4945490;28;20155;-64
2023/04/16 09:01:18;;;;;;;4.45;1.40;;;;;;;;;;4944806;28;20042;-68
2023/04/16 09:03:47;;;;;;;3.63;1.20;;;;;;;;;;4944844;28;20381;-65
2023/04/16 09:06:15;;;;;;;3.83;1.23;;;;;;;;;;4944190;28;20544;-63
2023/04/16 09:08:44;;;;;;;5.03;1.20;;;;;;;;;;4933190;28;20622;-64
2023/04/16 09:11:11;;;;;;;4.35;1.30;;;;;;;;;;4952443;28;20047;-65
2023/04/16 09:13:38;;;;;;;11.98;1.63;;;;;;;;;;4974594;28;20105;-65
2023/04/16 09:16:07;;;;;;;6.90;1.52;;;;;;;;;;4973676;28;20217;-65
2023/04/16 09:18:53;;;;;;;4.43;1.65;;;;;;;;;;4955592;28;20039;-64
2023/04/16 09:21:20;;;;;;;7.75;1.83;;;;;;;;;;4968292;28;20385;-66
2023/04/16 09:23:47;;;;;;;8.75;1.83;;;;;;;;;;4979155;28;20038;-65
2023/04/16 09:26:13;;;;;;;4.97;1.50;;;;;;;;;;4978089;28;20042;-69
2023/04/16 09:28:41;;;;;;;6.13;1.33;;;;;;;;;;4978701;28;20118;-66
2023/04/16 09:31:12;;;;;;;4.75;1.45;;;;;;;;;;4979490;28;20104;-65
2023/04/16 09:34:03;;;;;;;4.93;1.23;;;;;;;;;;4992711;28;20034;-65
2023/04/16 09:36:31;;;;;;;4.72;1.30;;;;;;;;;;4981205;28;20927;-65
2023/04/16 09:38:58;;;;;;;3.25;1.20;;;;;;;;;;4968639;28;20238;-65
2023/04/16 09:41:27;;;;;;;4.35;1.52;;;;;;;;;;4971666;28;20483;-65
2023/04/16 09:43:55;;;;;;;5.85;1.30;;;;;;;;;;4994481;28;20069;-65
2023/04/16 09:46:21;;;;;;;4.13;1.27;;;;;;;;;;4980801;28;20081;-64
2023/04/16 09:48:48;;;;;;;8.23;1.55;;;;;;;;;;4983333;28;20095;-65
2023/04/16 09:51:15;;;;;;;7.82;1.75;;;;;;;;;;4981294;28;20852;-64
2023/04/16 09:53:41;;;;;;;7.43;1.55;;;;;;;;;;4988827;28;20037;-65
2023/04/16 09:56:10;;;;;;;6.40;1.33;;;;;;;;;;4983769;28;20053;-65
2023/04/16 09:58:37;;;;;;;5.63;1.30;;;;;;;;;;4989699;28;20037;-66
2023/04/16 10:01:11;;;;;;;4.75;1.40;;;;;;;;;;4957141;28;20038;-64
2023/04/16 10:03:40;;;;;;;5.20;1.38;;;;;;;;;;4997543;28;20065;-64
2023/04/16 10:06:08;;;;;;;4.90;1.40;;;;;;;;;;4992227;28;20121;-65
2023/04/16 10:08:35;;;;;;;3.65;1.20;;;;;;;;;;4981932;28;20046;-64
2023/04/16 10:11:02;;;;;;;4.32;1.20;;;;;;;;;;4992482;28;20057;-63
2023/04/16 10:13:30;;;;;;;3.58;1.05;;;;;;;;;;4981673;28;20042;-65
2023/04/16 10:15:57;;;;;;;6.72;1.20;;;;;;;;;;4982929;28;20057;-64
2023/04/16 10:18:44;;;;;;;5.38;1.13;;;;;;;;;;4972254;28;20507;-65
2023/04/16 10:21:11;;;;;;;7.10;1.67;;;;;;;;;;4974309;28;20050;-65
2023/04/16 10:23:38;;;;;;;7.90;1.20;;;;;;;;;;4966414;28;20050;-66
2023/04/16 10:26:06;;;;;;;5.97;1.33;;;;;;;;;;4970715;28;20598;-66
2023/04/16 10:28:34;;;;;;;7.07;1.40;;;;;;;;;;4970069;28;20145;-64
2023/04/16 10:31:06;;;;;;;11.48;1.67;;;;;;;;;;4970777;28;20038;-63
2023/04/16 10:33:53;;;;;;;6.20;1.55;;;;;;;;;;4936059;28;20043;-64
2023/04/16 10:36:25;;;;;;;5.25;1.25;;;;;;;;;;4936782;28;20540;-64
2023/04/16 10:38:52;;;;;;;4.97;1.38;;;;;;;;;;4937421;28;20035;-65
2023/04/16 10:41:22;;;;;;;7.15;1.45;;;;;;;;;;4937391;28;20051;-63
2023/04/16 10:43:51;;;;;;;4.88;1.50;;;;;;;;;;4938525;28;20039;-64
2023/04/16 10:46:22;;;;;;;6.85;1.33;;;;;;;;;;4944237;28;20043;-65
2023/04/16 10:48:50;;;;;;;5.50;1.25;;;;;;;;;;4935971;28;20101;-65
2023/04/16 10:51:36;;;;;;;4.78;1.25;;;;;;;;;;4938460;28;21935;-64
2023/04/16 10:54:04;;;;;;;7.13;1.60;;;;;;;;;;4938908;28;20066;-64
2023/04/16 10:56:34;;;;;;;4.85;1.25;;;;;;;;;;4929420;28;20055;-64
2023/04/16 10:59:01;;;;;;;3.92;1.25;;;;;;;;;;4939287;29;20207;-64
2023/04/16 11:01:33;;;;;;;5.15;1.35;;;;;;;;;;4928629;28;20031;-65
2023/04/16 11:04:00;;;;;;;6.68;1.38;;;;;;;;;;4929316;28;20070;-65
2023/04/16 11:06:28;;;;;;;6.20;1.52;;;;;;;;;;4937452;28;20043;-65
2023/04/16 11:08:55;;;;;;;6.53;1.30;;;;;;;;;;4935996;29;20509;-64
2023/04/16 11:11:22;;;;;;;5.00;1.38;;;;;;;;;;4933750;28;20146;-66
2023/04/16 11:13:49;;;;;;;7.88;1.60;;;;;;;;;;4930617;28;20493;-65
2023/04/16 11:16:16;;;;;;;4.38;1.60;;;;;;;;;;4934526;28;20048;-64
2023/04/16 11:19:03;;;;;;;7.03;1.40;;;;;;;;;;4953309;28;20047;-65
2023/04/16 11:21:31;;;;;;;4.32;1.23;;;;;;;;;;4945871;28;20063;-65
2023/04/16 11:23:58;;;;;;;6.93;1.58;;;;;;;;;;4949059;28;20482;-64
2023/04/16 11:26:29;;;;;;;3.95;1.15;;;;;;;;;;4941687;28;20117;-64
2023/04/16 11:28:59;;;;;;;5.90;1.40;;;;;;;;;;4961265;28;20497;-64
2023/04/16 11:31:26;;;;;;;6.47;1.60;;;;;;;;;;4972252;28;20100;-64
2023/04/16 11:33:52;;;;;;;7.97;1.40;;;;;;;;;;4974790;28;20503;-65
2023/04/16 11:36:19;;;;;;;3.65;1.38;;;;;;;;;;4970227;28;20046;-65
2023/04/16 11:38:47;;;;;;;4.60;1.40;;;;;;;;;;4974397;28;20042;-65
2023/04/16 11:41:20;;;;;;;7.53;1.40;;;;;;;;;;4960499;28;20030;-66
2023/04/16 11:43:46;;;;;;;;;;;;;;;;;;4975263;28;20165;-64
2023/04/16 11:46:39;;;;;;;5.72;1.50;;;;;;;;;;4966885;28;19933;-64
2023/04/16 11:49:06;;;;;;;5.65;1.40;;;;;;;;;;4968712;28;20193;-64
2023/04/16 11:51:33;;;;;;;3.47;1.27;;;;;;;;;;4968596;28;20231;-63
2023/04/16 11:54:00;;;;;;;8.57;1.50;;;;;;;;;;4965354;28;20051;-67
2023/04/16 11:56:28;;;;;;;6.93;1.35;;;;;;;;;;4958496;28;20061;-64
2023/04/16 11:59:09;;;;;;;5.97;1.65;;;;;;;;;;4976597;28;20042;-65
2023/04/16 12:01:38;;;;;;;7.95;1.60;;;;;;;;;;4976668;28;20107;-63
2023/04/16 12:04:04;;;;;;;11.20;1.50;;;;;;;;;;4977252;28;20046;-64
2023/04/16 12:06:31;;;;;;;7.47;1.55;;;;;;;;;;4975957;28;20419;-63
2023/04/16 12:09:00;;;;;;;12.30;1.67;;;;;;;;;;4976981;28;20042;-65
2023/04/16 12:11:42;;;;;;;9.00;1.58;;;;;;;;;;4970535;28;20042;-64
2023/04/16 12:14:09;;;;;;;6.28;1.45;;;;;;;;;;4976766;28;20138;-64
2023/04/16 12:16:35;;;;;;;4.63;1.50;;;;;;;;;;4975508;28;20057;-62
2023/04/16 12:19:03;;;;;;;8.25;1.98;;;;;;;;;;4974913;28;20100;-63
2023/04/16 12:21:43;;;;;;;6.97;1.50;;;;;;;;;;4948055;28;20050;-63
2023/04/16 12:24:15;;;;;;;5.47;1.67;;;;;;;;;;4957358;28;20040;-65
2023/04/16 12:26:44;;;;;;;8.45;1.42;;;;;;;;;;4939459;28;20055;-64
2023/04/16 12:29:17;;;;;;;6.38;1.58;;;;;;;;;;4924377;28;20031;-65
2023/04/16 12:31:44;;;;;;;8.23;1.58;;;;;;;;;;4945228;28;20073;-65
2023/04/16 12:34:11;;;;;;;7.55;1.70;;;;;;;;;;4938486;28;20408;-64
2023/04/16 12:37:11;;;;;;;7.43;1.45;;;;;;;;;;4960978;28;20061;-64
2023/04/16 12:39:56;;;;;;;6.07;1.58;;;;;;;;;;4937589;28;20447;-65
2023/04/16 12:42:23;;;;;;;10.65;1.45;;;;;;;;;;4937623;28;20145;-64
2023/04/16 12:44:50;;;;;;;7.15;1.70;;;;;;;;;;4940958;28;20070;-64
2023/04/16 12:47:17;;;;;;;4.75;1.48;;;;;;;;;;4954384;28;20115;-64
2023/04/16 12:49:44;;;;;;;7.57;1.55;;;;;;;;;;4940814;28;20043;-63
2023/04/16 12:52:11;;;;;;;5.18;1.33;;;;;;;;;;4955625;28;20129;-65
2023/04/16 12:54:38;;;;;;;12.40;1.92;;;;;;;;;;4936688;28;20117;-64
2023/04/16 12:57:04;;;;;;;8.77;2.08;;;;;;;;;;4939185;28;20478;-66
2023/04/16 12:59:31;;;;;;;14.60;2.03;;;;;;;;;;4950177;28;20085;-66
2023/04/16 13:02:01;;;;;;;12.05;1.80;;;;;;;;;;4933127;28;20149;-64
2023/04/16 13:04:28;;;;;;;8.07;1.80;;;;;;;;;;4943439;28;20031;-65
2023/04/16 13:06:54;;;;;;;9.38;1.83;;;;;;;;;;4951386;28;20201;-65
2023/04/16 13:09:21;;;;;;;15.15;2.30;;;;;;;;;;4913853;28;20440;-65
2023/04/16 13:11:47;;;;;;;7.15;1.63;;;;;;;;;;4954157;28;20079;-65
2023/04/16 13:14:14;;;;;;;10.75;1.73;;;;;;;;;;4968181;28;20109;-64
2023/04/16 13:16:41;;;;;;;17.30;2.97;;;;;;;;;;4956337;28;20054;-64
2023/04/16 13:19:07;;;;;;;14.95;2.22;;;;;;;;;;4957635;28;20125;-63
2023/04/16 13:21:34;;;;;;;12.43;2.17;;;;;;;;;;4955836;28;20070;-64
2023/04/16 13:24:01;;;;;;;4.97;1.90;;;;;;;;;;4957931;28;20130;-64
2023/04/16 13:26:28;;;;;;;6.68;1.60;;;;;;;;;;4957815;28;20051;-64
2023/04/16 13:28:54;;;;;;;11.75;1.80;;;;;;;;;;4966351;28;20040;-66
2023/04/16 13:31:21;;;;;;;10.32;1.70;;;;;;;;;;4957141;28;20035;-64
2023/04/16 13:33:48;;;;;;;8.88;1.65;;;;;;;;;;4951868;28;20130;-65
2023/04/16 13:36:15;;;;;;;9.32;2.13;;;;;;;;;;4952685;28;21563;-64
2023/04/16 13:38:41;;;;;;;12.48;1.58;;;;;;;;;;4956182;28;20694;-65
2023/04/16 13:41:08;;;;;;;7.75;1.90;;;;;;;;;;4948365;28;20043;-64
2023/04/16 13:43:35;;;;;;;8.52;1.80;;;;;;;;;;4956405;28;20043;-64
2023/04/16 13:46:01;;;;;;;11.05;2.03;;;;;;;;;;4973271;28;20058;-64
2023/04/16 13:48:28;;;;;;;7.55;1.83;;;;;;;;;;4976379;28;20039;-65
2023/04/16 13:50:57;;;;;;;6.50;1.75;;;;;;;;;;4990559;28;20046;-64
2023/04/16 13:53:24;;;;;;;9.50;2.10;;;;;;;;;;4977948;28;20038;-66
2023/04/16 13:55:51;;;;;;;6.47;1.85;;;;;;;;;;4977732;28;20598;-64
2023/04/16 13:58:17;;;;;;;8.88;1.67;;;;;;;;;;4982128;28;20046;-64
2023/04/16 14:00:44;;;;;;;6.47;1.52;;;;;;;;;;4973750;28;20039;-66
2023/04/16 14:03:11;;;;;;;8.07;1.45;;;;;;;;;;4981528;28;20086;-63
2023/04/16 14:05:38;;;;;;;3.22;0.95;;;;;;;;;;4974808;28;20191;-63
2023/04/16 14:08:04;;;;;;;2.88;0.88;;;;;;;;;;4982137;28;20034;-64
2023/04/16 14:10:31;;;;;;;4.00;1.20;;;;;;;;;;4979548;28;20038;-61
2023/04/16 14:12:59;;;;;;;5.65;1.23;;;;;;;;;;4980711;28;20092;-63
2023/04/16 14:15:28;;;;;;;5.72;1.30;;;;;;;;;;4972408;28;20043;-63
2023/04/16 14:17:55;;;;;;;3.70;1.10;;;;;;;;;;4978855;28;20050;-64
2023/04/16 14:20:22;;;;;;;3.55;1.30;;;;;;;;;;4979909;28;20402;-63
2023/04/16 14:22:48;;;;;;;7.03;1.25;;;;;;;;;;4982108;28;20038;-63
2023/04/16 14:25:15;;;;;;;4.32;1.35;;;;;;;;;;4983241;28;20115;-65
2023/04/16 14:27:42;;;;;;;5.80;1.13;;;;;;;;;;4981240;28;20165;-63
2023/04/16 14:30:09;;;;;;;3.13;1.25;;;;;;;;;;4983430;28;20073;-61
2023/04/16 14:32:35;;;;;;;4.50;1.40;;;;;;;;;;4977695;28;20097;-63
2023/04/16 14:35:03;;;;;;;3.65;1.35;;;;;;;;;;4976946;28;20053;-66
2023/04/16 14:37:29;;;;;;;5.47;1.30;;;;;;;;;;4982085;28;20034;-64
2023/04/16 14:39:56;;;;;;;4.07;1.27;;;;;;;;;;4981954;28;20043;-64
2023/04/16 14:42:23;;;;;;;7.43;1.25;;;;;;;;;;4981750;28;20066;-65
2023/04/16 14:44:50;;;;;;;4.50;1.15;;;;;;;;;;4968413;28;20082;-63